Time;durP1;ratioP1;P1;durP2;ratioP2;P2;SDS_P1;SDS_P2;PMS_P1;PMS_P2;Temp;Humidity;BMP_temperature;BMP_pressure;BME280_temperature;BME280_humidity;BME280_pressure;Samples;Min_cycle;Max_cycle;Signal;HPM_P1;HPM_P2
2022/10/17 00:01:50;;;;;;;87.97;58.27;;;;;;;;;;5024326;28;20518;-42
2022/10/17 00:04:16;;;;;;;87.70;57.17;;;;;;;;;;5022951;28;20182;-42
2022/10/17 00:06:42;;;;;;;94.10;60.53;;;;;;;;;;5028678;28;21049;-42
2022/10/17 00:09:08;;;;;;;94.47;62.80;;;;;;;;;;5021449;28;20172;-42
2022/10/17 00:11:35;;;;;;;98.73;62.10;;;;;;;;;;5021951;28;21190;-42
2022/10/17 00:14:01;;;;;;;98.83;64.10;;;;;;;;;;5026482;28;20179;-41
2022/10/17 00:16:29;;;;;;;94.63;60.50;;;;;;;;;;5028212;28;20225;-43
2022/10/17 00:18:55;;;;;;;96.63;62.57;;;;;;;;;;5027353;28;20566;-43
2022/10/17 00:21:22;;;;;;;91.77;59.23;;;;;;;;;;5024647;28;20257;-42
2022/10/17 00:23:48;;;;;;;91.67;59.13;;;;;;;;;;5029904;28;20201;-43
2022/10/17 00:26:14;;;;;;;86.80;57.77;;;;;;;;;;5026323;28;20176;-42
2022/10/17 00:28:40;;;;;;;92.50;58.93;;;;;;;;;;5028152;28;20175;-42
2022/10/17 00:31:06;;;;;;;89.07;58.40;;;;;;;;;;5027392;28;20180;-42
2022/10/17 00:33:34;;;;;;;82.50;55.70;;;;;;;;;;5028997;28;20889;-42
2022/10/17 00:36:04;;;;;;;85.20;56.37;;;;;;;;;;5026958;28;20180;-42
2022/10/17 00:38:30;;;;;;;85.90;54.53;;;;;;;;;;5024797;28;20940;-43
2022/10/17 00:40:57;;;;;;;74.10;49.30;;;;;;;;;;5029907;28;20180;-43
2022/10/17 00:43:23;;;;;;;71.23;47.10;;;;;;;;;;5028288;28;20210;-42
2022/10/17 00:45:49;;;;;;;68.30;47.50;;;;;;;;;;5024711;28;20738;-41
2022/10/17 00:48:16;;;;;;;71.07;47.47;;;;;;;;;;5022769;28;20184;-41
2022/10/17 00:50:43;;;;;;;71.23;49.67;;;;;;;;;;5025374;28;20262;-41
2022/10/17 00:53:10;;;;;;;79.17;52.87;;;;;;;;;;5027263;28;20183;-43
2022/10/17 00:55:49;;;;;;;69.70;48.43;;;;;;;;;;5024360;28;20723;-43
2022/10/17 00:58:15;;;;;;;76.07;52.37;;;;;;;;;;5027487;28;20268;-43
2022/10/17 01:00:42;;;;;;;73.23;50.73;;;;;;;;;;5024500;28;20183;-43
2022/10/17 01:03:08;;;;;;;72.87;49.17;;;;;;;;;;5020288;28;20290;-41
2022/10/17 01:05:35;;;;;;;78.10;53.67;;;;;;;;;;5024326;28;20234;-43
2022/10/17 01:08:01;;;;;;;78.43;53.07;;;;;;;;;;5028307;28;20182;-43
2022/10/17 01:10:30;;;;;;;72.37;50.00;;;;;;;;;;5023520;28;20180;-43
2022/10/17 01:12:56;;;;;;;75.00;50.90;;;;;;;;;;5025964;28;20183;-41
2022/10/17 01:15:28;;;;;;;69.10;48.23;;;;;;;;;;5026891;28;20558;-43
2022/10/17 01:17:54;;;;;;;75.97;50.07;;;;;;;;;;5023631;28;21182;-42
2022/10/17 01:20:37;;;;;;;73.67;49.63;;;;;;;;;;5024910;28;20264;-42
2022/10/17 01:23:22;;;;;;;76.37;51.00;;;;;;;;;;5025347;28;20595;-41
2022/10/17 01:25:57;;;;;;;74.43;48.90;;;;;;;;;;5028041;28;20662;-43
2022/10/17 01:28:25;;;;;;;74.63;50.07;;;;;;;;;;5023135;28;20175;-43
2022/10/17 01:30:58;;;;;;;77.40;53.63;;;;;;;;;;5012430;28;20174;-43
2022/10/17 01:33:30;;;;;;;80.20;53.70;;;;;;;;;;5021773;28;20572;-42
2022/10/17 01:36:01;;;;;;;70.27;48.57;;;;;;;;;;5022698;28;20690;-43
2022/10/17 01:38:32;;;;;;;78.20;50.97;;;;;;;;;;5023625;28;20193;-43
2022/10/17 01:41:05;;;;;;;75.27;50.73;;;;;;;;;;5017713;28;20642;-43
2022/10/17 01:43:37;;;;;;;72.50;49.30;;;;;;;;;;5025977;28;20199;-42
2022/10/17 01:46:23;;;;;;;68.60;48.27;;;;;;;;;;5023640;28;20266;-42
2022/10/17 01:48:49;;;;;;;73.53;49.17;;;;;;;;;;5025926;28;20425;-42
2022/10/17 01:51:21;;;;;;;75.70;51.67;;;;;;;;;;5024621;28;20297;-42
2022/10/17 01:53:52;;;;;;;81.20;54.17;;;;;;;;;;5028470;28;20188;-42
2022/10/17 01:56:20;;;;;;;76.53;51.77;;;;;;;;;;5021324;28;20180;-42
2022/10/17 01:58:48;;;;;;;79.03;54.90;;;;;;;;;;5021267;28;20179;-42
2022/10/17 02:01:15;;;;;;;75.33;50.43;;;;;;;;;;5027954;28;20172;-43
2022/10/17 02:03:43;;;;;;;78.73;53.13;;;;;;;;;;5026725;28;20207;-43
2022/10/17 02:06:09;;;;;;;78.83;53.60;;;;;;;;;;5021673;28;20182;-43
2022/10/17 02:08:43;;;;;;;81.73;55.20;;;;;;;;;;5027835;28;20176;-43
2022/10/17 02:11:13;;;;;;;79.23;53.83;;;;;;;;;;5025849;28;20175;-43
2022/10/17 02:13:53;;;;;;;76.77;52.87;;;;;;;;;;5023543;28;20287;-42
2022/10/17 02:16:38;;;;;;;85.97;55.83;;;;;;;;;;5025351;28;20206;-42
2022/10/17 02:19:23;;;;;;;82.87;54.10;;;;;;;;;;5025795;28;20264;-42
2022/10/17 02:21:52;;;;;;;71.13;49.40;;;;;;;;;;5024062;28;20206;-42
2022/10/17 02:24:22;;;;;;;70.17;50.37;;;;;;;;;;5023763;28;20179;-43
2022/10/17 02:26:59;;;;;;;75.87;50.47;;;;;;;;;;5020215;28;20199;-43
2022/10/17 02:29:27;;;;;;;71.97;49.80;;;;;;;;;;5023196;28;20584;-42
2022/10/17 02:31:53;;;;;;;72.93;51.67;;;;;;;;;;5023692;28;20183;-42
2022/10/17 02:34:22;;;;;;;73.80;51.10;;;;;;;;;;5021602;28;20509;-42
2022/10/17 02:36:56;;;;;;;85.57;56.07;;;;;;;;;;5023069;28;20187;-42
2022/10/17 02:39:23;;;;;;;73.23;50.70;;;;;;;;;;5025894;28;20552;-42
2022/10/17 02:41:50;;;;;;;75.47;52.13;;;;;;;;;;5023936;28;20199;-42
2022/10/17 02:44:17;;;;;;;79.17;52.33;;;;;;;;;;5023558;28;20739;-45
2022/10/17 02:46:47;;;;;;;78.33;52.23;;;;;;;;;;5024364;28;20547;-45
2022/10/17 02:49:18;;;;;;;75.23;50.50;;;;;;;;;;5026222;28;20195;-42
2022/10/17 02:51:46;;;;;;;79.70;52.23;;;;;;;;;;5026399;28;20210;-42
2022/10/17 02:54:47;;;;;;;80.20;53.13;;;;;;;;;;5023354;28;20509;-42
2022/10/17 02:57:17;;;;;;;80.03;53.80;;;;;;;;;;4982630;28;20185;-42
2022/10/17 02:59:44;;;;;;;72.40;51.50;;;;;;;;;;5018164;28;20214;-43
2022/10/17 03:02:10;;;;;;;74.43;51.03;;;;;;;;;;5025169;28;20312;-42
2022/10/17 03:04:37;;;;;;;74.33;50.37;;;;;;;;;;5023642;28;20230;-42
2022/10/17 03:07:03;;;;;;;74.20;51.37;;;;;;;;;;5024228;28;20183;-43
2022/10/17 03:09:29;;;;;;;82.53;53.40;;;;;;;;;;5026522;28;20199;-42
2022/10/17 03:11:55;;;;;;;91.47;57.70;;;;;;;;;;5026663;28;20184;-43
2022/10/17 03:14:21;;;;;;;87.77;57.77;;;;;;;;;;5023616;28;20194;-42
2022/10/17 03:16:47;;;;;;;93.07;59.33;;;;;;;;;;5023200;28;20187;-42
2022/10/17 03:19:13;;;;;;;95.77;59.47;;;;;;;;;;5021459;28;20183;-42
2022/10/17 03:21:39;;;;;;;96.93;59.67;;;;;;;;;;5019002;28;20261;-41
2022/10/17 03:24:05;;;;;;;88.63;56.53;;;;;;;;;;5018118;28;20188;-42
2022/10/17 03:26:31;;;;;;;87.80;57.33;;;;;;;;;;5019991;28;20184;-41
2022/10/17 03:28:58;;;;;;;87.20;57.13;;;;;;;;;;5018674;28;20635;-41
2022/10/17 03:31:24;;;;;;;89.97;58.00;;;;;;;;;;5018300;28;20171;-42
2022/10/17 03:33:50;;;;;;;94.40;58.60;;;;;;;;;;5019365;28;20179;-42
2022/10/17 03:36:18;;;;;;;97.83;59.57;;;;;;;;;;5020414;28;20642;-42
2022/10/17 03:38:44;;;;;;;93.70;59.53;;;;;;;;;;5016640;28;20183;-42
2022/10/17 03:41:10;;;;;;;95.00;58.17;;;;;;;;;;5022783;28;21066;-42
2022/10/17 03:43:36;;;;;;;91.93;57.73;;;;;;;;;;5021973;28;20195;-42
2022/10/17 03:46:02;;;;;;;88.03;55.67;;;;;;;;;;5023900;28;20711;-42
2022/10/17 03:48:29;;;;;;;92.90;60.10;;;;;;;;;;5028726;28;20172;-42
2022/10/17 03:51:03;;;;;;;92.60;57.90;;;;;;;;;;5031381;28;20730;-42
2022/10/17 03:53:29;;;;;;;92.40;57.60;;;;;;;;;;5026043;28;20588;-42
2022/10/17 03:55:56;;;;;;;87.43;56.40;;;;;;;;;;5028119;28;20788;-41
2022/10/17 03:58:22;;;;;;;92.13;56.70;;;;;;;;;;5028139;28;20175;-42
2022/10/17 04:00:48;;;;;;;92.83;57.67;;;;;;;;;;5027604;28;20564;-42
2022/10/17 04:03:14;;;;;;;98.60;58.40;;;;;;;;;;5025668;28;20611;-41
2022/10/17 04:05:40;;;;;;;89.90;56.17;;;;;;;;;;5027856;28;20342;-42
2022/10/17 04:08:06;;;;;;;89.63;56.87;;;;;;;;;;5028487;28;20203;-42
2022/10/17 04:10:32;;;;;;;82.33;54.47;;;;;;;;;;5026192;28;20445;-41
2022/10/17 04:12:59;;;;;;;86.97;55.03;;;;;;;;;;5018438;28;20179;-41
2022/10/17 04:15:25;;;;;;;84.23;54.87;;;;;;;;;;5026650;28;20187;-42
2022/10/17 04:17:51;;;;;;;95.90;60.60;;;;;;;;;;5023901;28;20595;-45
2022/10/17 04:20:17;;;;;;;92.47;57.33;;;;;;;;;;5023959;28;20521;-42
2022/10/17 04:22:43;;;;;;;80.87;52.73;;;;;;;;;;5025547;28;20292;-42
2022/10/17 04:25:09;;;;;;;95.10;58.50;;;;;;;;;;5025573;28;20172;-41
2022/10/17 04:27:35;;;;;;;89.73;55.43;;;;;;;;;;5019812;28;20714;-42
2022/10/17 04:30:01;;;;;;;95.47;59.17;;;;;;;;;;5024640;28;20646;-42
2022/10/17 04:32:27;;;;;;;93.03;57.90;;;;;;;;;;5026304;28;20219;-43
2022/10/17 04:34:53;;;;;;;90.67;56.73;;;;;;;;;;5023697;28;20647;-45
2022/10/17 04:37:19;;;;;;;99.67;58.27;;;;;;;;;;5027069;28;20777;-43
2022/10/17 04:39:45;;;;;;;94.60;59.40;;;;;;;;;;5028695;28;20566;-43
2022/10/17 04:42:11;;;;;;;98.90;60.17;;;;;;;;;;5025159;28;20207;-43
2022/10/17 04:44:38;;;;;;;95.60;59.70;;;;;;;;;;5021458;28;20171;-43
2022/10/17 04:47:04;;;;;;;104.13;61.60;;;;;;;;;;5023140;28;20172;-43
2022/10/17 04:49:30;;;;;;;96.53;58.83;;;;;;;;;;5024392;28;20622;-42
2022/10/17 04:51:56;;;;;;;99.50;59.40;;;;;;;;;;5021606;28;20221;-45
2022/10/17 04:54:22;;;;;;;97.87;59.37;;;;;;;;;;5022516;28;20183;-45
2022/10/17 04:56:48;;;;;;;98.37;58.27;;;;;;;;;;5026279;28;20294;-43
2022/10/17 04:59:14;;;;;;;97.03;57.33;;;;;;;;;;5021704;28;20214;-42
2022/10/17 05:01:40;;;;;;;87.87;54.17;;;;;;;;;;5022516;28;20175;-42
2022/10/17 05:04:06;;;;;;;98.83;57.13;;;;;;;;;;5023885;28;20625;-42
2022/10/17 05:06:33;;;;;;;88.10;53.67;;;;;;;;;;5025375;28;20944;-42
2022/10/17 05:08:59;;;;;;;87.57;54.63;;;;;;;;;;5023266;28;20953;-43
2022/10/17 05:11:27;;;;;;;77.30;50.83;;;;;;;;;;5023503;28;20180;-42
2022/10/17 05:13:55;;;;;;;84.97;51.07;;;;;;;;;;5025769;28;20842;-42
2022/10/17 05:16:21;;;;;;;79.70;50.30;;;;;;;;;;5022256;28;20175;-43
2022/10/17 05:18:49;;;;;;;86.40;51.37;;;;;;;;;;5020595;28;20885;-43
2022/10/17 05:21:15;;;;;;;82.97;51.23;;;;;;;;;;5026280;28;20179;-42
2022/10/17 05:23:41;;;;;;;74.23;47.47;;;;;;;;;;5025444;28;20279;-43
2022/10/17 05:26:07;;;;;;;91.20;52.80;;;;;;;;;;5026108;28;20746;-43
2022/10/17 05:28:34;;;;;;;80.67;47.73;;;;;;;;;;5023876;28;20284;-43
2022/10/17 05:31:03;;;;;;;87.17;52.80;;;;;;;;;;5027046;28;20631;-42
2022/10/17 05:33:30;;;;;;;76.87;49.57;;;;;;;;;;5020623;28;20658;-43
2022/10/17 05:35:56;;;;;;;76.60;50.37;;;;;;;;;;5016845;28;20290;-42
2022/10/17 05:38:22;;;;;;;83.70;50.10;;;;;;;;;;5021874;28;20844;-43
2022/10/17 05:40:48;;;;;;;81.20;50.27;;;;;;;;;;5023134;28;20719;-42
2022/10/17 05:43:14;;;;;;;93.00;53.90;;;;;;;;;;5024693;28;20609;-43
2022/10/17 05:45:40;;;;;;;90.77;54.07;;;;;;;;;;5020016;28;20274;-42
2022/10/17 05:48:07;;;;;;;92.63;55.63;;;;;;;;;;5019930;28;20742;-43
2022/10/17 05:50:34;;;;;;;84.80;54.53;;;;;;;;;;5024433;28;20598;-43
2022/10/17 05:53:00;;;;;;;90.73;56.23;;;;;;;;;;5025457;28;20661;-42
2022/10/17 05:55:26;;;;;;;90.47;55.53;;;;;;;;;;5024167;28;20175;-43
2022/10/17 05:57:52;;;;;;;92.50;55.77;;;;;;;;;;5024723;28;20696;-42
2022/10/17 06:00:19;;;;;;;96.20;57.10;;;;;;;;;;5026798;28;20696;-43
2022/10/17 06:02:45;;;;;;;103.57;59.03;;;;;;;;;;5023823;28;20526;-43
2022/10/17 06:05:12;;;;;;;98.43;59.10;;;;;;;;;;5025976;28;20365;-43
2022/10/17 06:07:38;;;;;;;102.10;58.10;;;;;;;;;;5021867;28;20283;-42
2022/10/17 06:10:05;;;;;;;83.40;53.83;;;;;;;;;;5027501;28;20175;-44
2022/10/17 06:12:31;;;;;;;91.87;55.30;;;;;;;;;;5028308;28;20647;-44
2022/10/17 06:14:57;;;;;;;84.80;52.87;;;;;;;;;;5024724;28;20281;-41
2022/10/17 06:17:23;;;;;;;89.23;55.00;;;;;;;;;;5022854;28;20624;-42
2022/10/17 06:19:50;;;;;;;82.77;53.43;;;;;;;;;;5030632;28;20275;-43
2022/10/17 06:22:16;;;;;;;82.33;52.73;;;;;;;;;;5028121;28;20615;-43
2022/10/17 06:24:42;;;;;;;86.00;53.93;;;;;;;;;;5025372;28;20434;-43
2022/10/17 06:27:08;;;;;;;91.27;55.93;;;;;;;;;;5022972;28;20180;-42
2022/10/17 06:29:34;;;;;;;85.90;53.83;;;;;;;;;;5027015;28;20183;-43
2022/10/17 06:32:00;;;;;;;83.50;53.83;;;;;;;;;;5025251;28;20186;-43
2022/10/17 06:34:26;;;;;;;87.27;55.27;;;;;;;;;;5027421;28;20184;-43
2022/10/17 06:36:53;;;;;;;77.43;50.90;;;;;;;;;;5029174;28;20179;-42
2022/10/17 06:39:19;;;;;;;78.17;49.87;;;;;;;;;;5026469;28;20223;-43
2022/10/17 06:41:45;;;;;;;70.60;47.57;;;;;;;;;;5027528;28;20792;-43
2022/10/17 06:44:11;;;;;;;71.73;48.10;;;;;;;;;;5026974;28;20338;-43
2022/10/17 06:46:38;;;;;;;73.10;48.97;;;;;;;;;;5027296;28;20925;-41
2022/10/17 06:49:04;;;;;;;70.63;47.10;;;;;;;;;;5023084;28;20264;-42
2022/10/17 06:51:37;;;;;;;69.87;47.80;;;;;;;;;;5019967;28;20171;-43
2022/10/17 06:54:03;;;;;;;62.33;45.33;;;;;;;;;;5026114;28;20295;-42
2022/10/17 06:56:29;;;;;;;65.27;46.70;;;;;;;;;;5022437;28;20836;-42
2022/10/17 06:58:55;;;;;;;63.87;47.13;;;;;;;;;;5019868;28;20184;-43
2022/10/17 07:01:21;;;;;;;69.30;50.07;;;;;;;;;;5020399;28;20184;-43
2022/10/17 07:03:49;;;;;;;77.47;52.97;;;;;;;;;;5021840;28;20536;-43
2022/10/17 07:06:15;;;;;;;71.87;53.20;;;;;;;;;;5022060;28;20254;-43
2022/10/17 07:08:44;;;;;;;64.70;46.87;;;;;;;;;;5024515;28;20580;-43
2022/10/17 07:11:18;;;;;;;63.60;45.90;;;;;;;;;;5024688;28;20256;-43
2022/10/17 07:13:44;;;;;;;63.03;47.60;;;;;;;;;;5024358;28;20256;-43
2022/10/17 07:16:11;;;;;;;65.23;47.67;;;;;;;;;;5025316;28;20172;-43
2022/10/17 07:18:37;;;;;;;67.77;49.33;;;;;;;;;;5029287;28;20179;-43
2022/10/17 07:21:04;;;;;;;68.33;48.77;;;;;;;;;;5027903;28;20536;-43
2022/10/17 07:23:30;;;;;;;66.23;47.90;;;;;;;;;;5029234;28;20765;-43
2022/10/17 07:26:01;;;;;;;69.30;50.10;;;;;;;;;;5031711;28;20627;-43
2022/10/17 07:28:27;;;;;;;63.50;46.40;;;;;;;;;;5027847;28;20526;-43
2022/10/17 07:30:53;;;;;;;68.80;47.77;;;;;;;;;;5027187;28;20172;-43
2022/10/17 07:33:20;;;;;;;62.80;46.47;;;;;;;;;;5031201;28;20188;-43
2022/10/17 07:35:46;;;;;;;65.60;48.00;;;;;;;;;;5029058;28;20632;-43
2022/10/17 07:38:12;;;;;;;66.03;46.30;;;;;;;;;;5028506;28;20182;-43
2022/10/17 07:40:38;;;;;;;61.77;46.33;;;;;;;;;;5032498;28;20179;-43
2022/10/17 07:43:04;;;;;;;70.60;49.73;;;;;;;;;;5030659;28;20638;-43
2022/10/17 07:45:30;;;;;;;69.67;49.33;;;;;;;;;;5027128;28;20175;-43
2022/10/17 07:47:57;;;;;;;75.50;51.63;;;;;;;;;;5028647;28;20178;-43
2022/10/17 07:50:23;;;;;;;75.53;52.33;;;;;;;;;;5028302;28;20199;-43
2022/10/17 07:52:49;;;;;;;75.40;52.90;;;;;;;;;;5029704;28;20686;-44
2022/10/17 07:55:15;;;;;;;69.80;49.20;;;;;;;;;;5028920;28;20553;-44
2022/10/17 07:57:42;;;;;;;72.73;50.27;;;;;;;;;;5025794;28;20544;-44
2022/10/17 08:00:08;;;;;;;74.17;50.00;;;;;;;;;;5028128;28;20543;-44
2022/10/17 08:02:34;;;;;;;67.57;48.97;;;;;;;;;;5027130;28;20192;-43
2022/10/17 08:05:00;;;;;;;71.40;49.80;;;;;;;;;;5024699;28;20183;-43
2022/10/17 08:07:26;;;;;;;78.73;49.07;;;;;;;;;;5026148;28;20524;-43
2022/10/17 08:09:52;;;;;;;60.13;42.63;;;;;;;;;;5029453;28;20189;-42
2022/10/17 08:12:18;;;;;;;65.80;45.87;;;;;;;;;;5030040;28;20921;-43
2022/10/17 08:14:44;;;;;;;68.30;47.90;;;;;;;;;;5020689;28;20547;-43
2022/10/17 08:17:10;;;;;;;62.80;46.27;;;;;;;;;;5020313;28;20184;-43
2022/10/17 08:19:40;;;;;;;60.77;43.70;;;;;;;;;;5026495;28;20491;-43
2022/10/17 08:22:06;;;;;;;55.13;41.07;;;;;;;;;;5031301;28;20659;-43
2022/10/17 08:24:32;;;;;;;57.40;41.87;;;;;;;;;;5028276;28;20182;-43
2022/10/17 08:26:59;;;;;;;59.17;42.03;;;;;;;;;;5027616;28;20172;-43
2022/10/17 08:29:25;;;;;;;57.10;43.17;;;;;;;;;;5027910;28;20492;-43
2022/10/17 08:31:52;;;;;;;57.70;41.83;;;;;;;;;;5031083;28;20471;-43
2022/10/17 08:34:18;;;;;;;57.63;41.63;;;;;;;;;;5029189;28;20246;-43
2022/10/17 08:36:44;;;;;;;56.90;40.50;;;;;;;;;;5028870;28;20207;-43
2022/10/17 08:39:10;;;;;;;52.17;37.63;;;;;;;;;;5029864;28;20261;-43
2022/10/17 08:41:57;;;;;;;50.63;37.77;;;;;;;;;;5024507;28;20173;-43
2022/10/17 08:44:38;;;;;;;53.43;37.80;;;;;;;;;;5029910;28;20429;-43
2022/10/17 08:47:08;;;;;;;48.63;36.97;;;;;;;;;;5032270;28;20179;-43
2022/10/17 08:49:37;;;;;;;51.83;38.80;;;;;;;;;;5026650;28;20171;-42
2022/10/17 08:52:11;;;;;;;47.23;36.97;;;;;;;;;;5028971;28;20171;-42
2022/10/17 08:54:47;;;;;;;54.23;40.73;;;;;;;;;;5030286;28;20168;-43
2022/10/17 08:57:15;;;;;;;54.03;39.33;;;;;;;;;;5029023;28;20172;-43
2022/10/17 08:59:41;;;;;;;51.20;37.70;;;;;;;;;;5027095;28;20176;-43
2022/10/17 09:02:07;;;;;;;55.13;40.17;;;;;;;;;;5024545;28;20181;-43
2022/10/17 09:04:56;;;;;;;49.93;39.23;;;;;;;;;;5029550;28;20176;-43
2022/10/17 09:07:27;;;;;;;53.90;40.00;;;;;;;;;;5026181;28;20726;-42
2022/10/17 09:09:53;;;;;;;48.23;37.10;;;;;;;;;;5029417;28;20727;-42
2022/10/17 09:12:25;;;;;;;52.83;36.20;;;;;;;;;;5031073;28;20270;-42
2022/10/17 09:15:10;;;;;;;48.03;36.37;;;;;;;;;;5033669;28;20176;-42
2022/10/17 09:17:49;;;;;;;53.33;37.30;;;;;;;;;;5027012;28;20756;-43
2022/10/17 09:20:18;;;;;;;50.53;37.83;;;;;;;;;;5025793;28;20184;-42
2022/10/17 09:22:50;;;;;;;51.03;38.27;;;;;;;;;;5030054;28;20195;-43
2022/10/17 09:25:18;;;;;;;55.00;38.87;;;;;;;;;;5032067;28;20623;-42
2022/10/17 09:27:47;;;;;;;53.50;38.27;;;;;;;;;;5027716;28;20578;-42
2022/10/17 09:30:32;;;;;;;53.27;37.57;;;;;;;;;;5026107;28;20575;-42
2022/10/17 09:32:58;;;;;;;56.90;39.00;;;;;;;;;;5032031;28;20872;-42
2022/10/17 09:35:25;;;;;;;52.83;36.57;;;;;;;;;;5029067;28;20799;-41
2022/10/17 09:37:52;;;;;;;51.43;37.30;;;;;;;;;;5024538;28;20712;-43
2022/10/17 09:40:22;;;;;;;44.90;33.77;;;;;;;;;;5025951;28;20167;-43
2022/10/17 09:42:50;;;;;;;49.17;34.87;;;;;;;;;;5027570;28;20211;-42
2022/10/17 09:45:18;;;;;;;49.97;35.03;;;;;;;;;;5030135;28;20503;-43
2022/10/17 09:47:50;;;;;;;49.10;35.37;;;;;;;;;;5032732;28;20561;-43
2022/10/17 09:50:19;;;;;;;50.20;35.93;;;;;;;;;;5026629;28;20652;-42
2022/10/17 09:52:47;;;;;;;49.70;34.57;;;;;;;;;;5031692;28;20945;-42
2022/10/17 09:55:32;;;;;;;50.97;34.93;;;;;;;;;;5025832;28;20616;-42
2022/10/17 09:57:59;;;;;;;53.73;35.60;;;;;;;;;;5026887;28;20445;-43
2022/10/17 10:00:29;;;;;;;50.27;35.90;;;;;;;;;;5032056;28;20184;-42
2022/10/17 10:03:08;;;;;;;48.00;33.40;;;;;;;;;;5024940;28;21078;-42
2022/10/17 10:05:34;;;;;;;43.10;32.90;;;;;;;;;;5027511;28;20297;-41
2022/10/17 10:08:02;;;;;;;45.17;32.73;;;;;;;;;;5028997;28;20265;-42
2022/10/17 10:10:29;;;;;;;51.10;34.00;;;;;;;;;;5027762;28;20171;-42
2022/10/17 10:13:15;;;;;;;45.10;33.33;;;;;;;;;;5024441;28;20274;-42
2022/10/17 10:15:43;;;;;;;51.40;33.57;;;;;;;;;;5028524;28;20304;-42
2022/10/17 10:18:24;;;;;;;47.27;33.93;;;;;;;;;;5024364;28;20179;-42
2022/10/17 10:21:06;;;;;;;44.00;31.80;;;;;;;;;;5023716;28;20219;-42
2022/10/17 10:23:32;;;;;;;45.37;32.33;;;;;;;;;;5031922;28;20453;-43
2022/10/17 10:26:00;;;;;;;44.10;31.20;;;;;;;;;;5030685;28;20431;-42
2022/10/17 10:28:29;;;;;;;47.37;33.80;;;;;;;;;;5026575;28;20735;-42
2022/10/17 10:30:56;;;;;;;47.80;33.23;;;;;;;;;;5026006;28;20183;-42
2022/10/17 10:33:23;;;;;;;44.30;32.67;;;;;;;;;;5029862;28;20192;-42
2022/10/17 10:35:55;;;;;;;45.33;32.27;;;;;;;;;;5030196;28;20184;-42
2022/10/17 10:38:21;;;;;;;49.00;34.67;;;;;;;;;;5028817;28;20184;-42
2022/10/17 10:40:52;;;;;;;45.30;33.20;;;;;;;;;;5024319;28;20607;-45
2022/10/17 10:43:23;;;;;;;49.63;33.90;;;;;;;;;;5025299;28;20606;-42
2022/10/17 10:45:50;;;;;;;47.73;33.70;;;;;;;;;;5024793;28;20172;-42
2022/10/17 10:48:20;;;;;;;50.53;36.87;;;;;;;;;;5029216;28;20875;-42
2022/10/17 10:50:49;;;;;;;52.77;33.70;;;;;;;;;;5027572;28;20226;-42
2022/10/17 10:53:44;;;;;;;48.63;34.37;;;;;;;;;;5023837;28;20199;-42
2022/10/17 10:56:16;;;;;;;47.50;34.10;;;;;;;;;;5007793;28;20413;-42
2022/10/17 10:58:49;;;;;;;48.87;35.70;;;;;;;;;;5028208;28;20273;-43
2022/10/17 11:01:35;;;;;;;50.60;34.87;;;;;;;;;;5025636;28;20180;-43
2022/10/17 11:04:07;;;;;;;48.67;35.03;;;;;;;;;;5018715;28;20219;-43
2022/10/17 11:06:37;;;;;;;54.47;36.43;;;;;;;;;;5029157;28;20933;-42
2022/10/17 11:09:03;;;;;;;55.00;35.03;;;;;;;;;;5024326;28;20180;-42
2022/10/17 11:11:37;;;;;;;51.13;36.03;;;;;;;;;;5024594;28;20183;-43
2022/10/17 11:14:06;;;;;;;43.33;31.50;;;;;;;;;;5028350;28;21071;-43
2022/10/17 11:16:37;;;;;;;52.57;36.13;;;;;;;;;;5029780;28;20168;-43
2022/10/17 11:19:15;;;;;;;51.40;36.27;;;;;;;;;;5023609;28;20258;-43
2022/10/17 11:21:47;;;;;;;44.80;34.60;;;;;;;;;;5028590;28;20171;-43
2022/10/17 11:24:13;;;;;;;49.67;33.90;;;;;;;;;;5023179;28;20199;-43
2022/10/17 11:26:42;;;;;;;52.27;35.53;;;;;;;;;;5026010;28;20179;-43
2022/10/17 11:29:12;;;;;;;49.00;35.90;;;;;;;;;;5031659;28;20187;-42
2022/10/17 11:31:44;;;;;;;51.20;36.03;;;;;;;;;;5026506;28;20967;-43
2022/10/17 11:34:18;;;;;;;48.37;34.23;;;;;;;;;;5025460;28;20673;-43
2022/10/17 11:36:45;;;;;;;50.37;34.67;;;;;;;;;;5029113;28;20228;-43
2022/10/17 11:39:14;;;;;;;50.40;34.33;;;;;;;;;;5028322;28;20214;-43
2022/10/17 11:41:43;;;;;;;48.67;34.57;;;;;;;;;;5026146;28;20226;-43
2022/10/17 11:44:27;;;;;;;43.60;31.87;;;;;;;;;;5027534;28;20211;-42
2022/10/17 11:46:58;;;;;;;47.90;33.53;;;;;;;;;;5022134;28;20184;-41
2022/10/17 11:49:30;;;;;;;47.50;32.80;;;;;;;;;;5024953;28;20264;-43
2022/10/17 11:52:15;;;;;;;42.10;30.23;;;;;;;;;;5029377;28;20245;-43
2022/10/17 11:54:42;;;;;;;49.13;34.00;;;;;;;;;;5028340;28;20171;-42
2022/10/17 11:57:21;;;;;;;46.67;32.50;;;;;;;;;;5024656;28;20301;-43
2022/10/17 12:00:00;;;;;;;45.23;31.80;;;;;;;;;;5029247;28;20180;-43
2022/10/17 12:02:33;;;;;;;48.50;34.10;;;;;;;;;;5028385;28;20729;-43
2022/10/17 12:05:04;;;;;;;53.00;34.40;;;;;;;;;;5025856;28;20180;-43
2022/10/17 12:07:42;;;;;;;45.27;34.13;;;;;;;;;;5029174;28;20562;-45
2022/10/17 12:10:35;;;;;;;45.33;33.40;;;;;;;;;;5031842;28;20649;-45
2022/10/17 12:13:36;;;;;;;46.57;32.97;;;;;;;;;;5010163;28;20881;-45
2022/10/17 12:16:28;;;;;;;41.50;29.87;;;;;;;;;;5003926;28;20823;-45
2022/10/17 12:19:01;;;;;;;44.67;31.13;;;;;;;;;;5027146;28;20328;-45
2022/10/17 12:21:27;;;;;;;43.50;31.30;;;;;;;;;;5032652;28;20179;-45
2022/10/17 12:23:54;;;;;;;41.90;30.20;;;;;;;;;;5029685;28;20595;-43
2022/10/17 12:26:27;;;;;;;38.07;27.43;;;;;;;;;;5029351;28;20172;-44
2022/10/17 12:28:53;;;;;;;41.20;29.27;;;;;;;;;;5033267;28;20195;-45
2022/10/17 12:31:20;;;;;;;45.23;30.10;;;;;;;;;;5027075;28;20564;-43
2022/10/17 12:33:57;;;;;;;37.60;27.87;;;;;;;;;;5028218;28;20214;-42
2022/10/17 12:36:26;;;;;;;39.60;26.63;;;;;;;;;;5032715;28;20191;-43
2022/10/17 12:39:14;;;;;;;35.33;24.83;;;;;;;;;;5030322;28;20971;-43
2022/10/17 12:41:41;;;;;;;28.10;21.23;;;;;;;;;;5027578;28;20187;-43
2022/10/17 12:44:13;;;;;;;34.77;24.70;;;;;;;;;;5033063;28;20778;-43
2022/10/17 12:46:48;;;;;;;36.30;24.50;;;;;;;;;;5027487;28;20182;-43
2022/10/17 12:49:36;;;;;;;35.17;25.20;;;;;;;;;;5032484;28;20186;-43
2022/10/17 12:52:05;;;;;;;45.30;29.33;;;;;;;;;;5033080;28;21000;-43
2022/10/17 12:54:31;;;;;;;34.17;24.67;;;;;;;;;;5027993;28;20175;-43
2022/10/17 12:56:57;;;;;;;36.00;25.73;;;;;;;;;;5028855;28;20934;-43
2022/10/17 12:59:25;;;;;;;34.17;24.03;;;;;;;;;;5032819;28;20340;-43
2022/10/17 13:01:57;;;;;;;32.30;22.50;;;;;;;;;;5031201;28;20742;-43
2022/10/17 13:04:23;;;;;;;34.97;22.00;;;;;;;;;;5026870;28;20204;-43
2022/10/17 13:06:53;;;;;;;31.23;20.90;;;;;;;;;;5027293;28;20610;-43
2022/10/17 13:09:28;;;;;;;29.33;21.90;;;;;;;;;;5029971;28;20171;-43
2022/10/17 13:11:56;;;;;;;34.63;22.60;;;;;;;;;;5030857;28;20210;-42
2022/10/17 13:14:23;;;;;;;33.47;21.70;;;;;;;;;;5026925;28;20642;-43
2022/10/17 13:16:54;;;;;;;30.13;21.17;;;;;;;;;;5028901;28;20191;-43
2022/10/17 13:19:25;;;;;;;28.93;20.83;;;;;;;;;;5028703;28;20179;-43
2022/10/17 13:21:54;;;;;;;28.20;19.97;;;;;;;;;;5025937;28;20976;-43
2022/10/17 13:24:23;;;;;;;27.07;18.23;;;;;;;;;;5027582;28;20206;-43
2022/10/17 13:26:49;;;;;;;25.60;18.90;;;;;;;;;;5030467;28;20183;-43
2022/10/17 13:29:15;;;;;;;35.17;25.87;;;;;;;;;;5028444;28;20192;-43
2022/10/17 13:31:43;;;;;;;33.47;21.70;;;;;;;;;;5026321;28;20176;-42
2022/10/17 13:34:25;;;;;;;32.33;24.57;;;;;;;;;;5032752;28;20176;-42
2022/10/17 13:36:53;;;;;;;33.20;23.70;;;;;;;;;;5029379;28;20183;-42
2022/10/17 13:39:21;;;;;;;35.20;23.90;;;;;;;;;;5026235;28;20557;-43
2022/10/17 13:41:47;;;;;;;39.13;26.37;;;;;;;;;;5030204;28;20239;-43
2022/10/17 13:44:16;;;;;;;34.87;24.37;;;;;;;;;;5030561;28;20203;-43
2022/10/17 13:46:42;;;;;;;31.93;22.70;;;;;;;;;;5028023;28;20510;-42
2022/10/17 13:49:11;;;;;;;28.90;21.80;;;;;;;;;;5027417;28;20447;-43
2022/10/17 13:51:37;;;;;;;32.67;23.47;;;;;;;;;;5032782;28;20981;-43
2022/10/17 13:54:16;;;;;;;30.83;22.43;;;;;;;;;;5025940;28;20180;-43
2022/10/17 13:56:42;;;;;;;38.80;24.57;;;;;;;;;;5027181;28;20183;-43
2022/10/17 13:59:19;;;;;;;32.87;23.10;;;;;;;;;;5030388;28;20210;-43
2022/10/17 14:01:48;;;;;;;36.23;22.87;;;;;;;;;;5027592;28;20180;-43
2022/10/17 14:04:15;;;;;;;28.33;21.20;;;;;;;;;;5027378;28;20293;-42
2022/10/17 14:06:45;;;;;;;32.10;21.40;;;;;;;;;;5026929;28;20255;-43
2022/10/17 14:09:30;;;;;;;30.17;22.33;;;;;;;;;;5030658;28;20573;-43
2022/10/17 14:11:59;;;;;;;29.40;19.97;;;;;;;;;;5027391;28;20175;-44
2022/10/17 14:14:26;;;;;;;27.93;21.20;;;;;;;;;;5022489;28;21022;-43
2022/10/17 14:16:52;;;;;;;22.67;18.10;;;;;;;;;;5027016;28;20375;-43
2022/10/17 14:19:21;;;;;;;26.80;19.67;;;;;;;;;;5028548;28;20528;-44
2022/10/17 14:21:48;;;;;;;26.93;18.83;;;;;;;;;;5026477;28;20203;-43
2022/10/17 14:24:34;;;;;;;28.53;19.47;;;;;;;;;;5027651;28;20207;-43
2022/10/17 14:27:00;;;;;;;28.77;20.13;;;;;;;;;;5031012;28;20599;-43
2022/10/17 14:29:31;;;;;;;21.27;17.03;;;;;;;;;;5026752;28;20577;-43